Lampe, MO

7:34 AM CDT on April 25, 2015 (GMT -0500)
Monett | | Change Station
CLOSE
Current Station
Airport
Location: Monett,
Elevation: 1316 ft
Nearby Weather Stations

Elev 1316 ft 36.91 °N, 94.01 °W | Updated 19 minutes ago

Clear
Clear
59 °F
Feels Like 59 °F
N
18
Wind Variable Wind from SSW
Gusts 23 mph

Today
High -- | Low -- °F
--% Chance of Precip.
Yesterday
High -- | Low -- °F
Precip. -- in
6:27 AM 7:56 PM
Waxing Crescent, 45% visible
Pressure 29.53 in
Visibility 10.0 miles
Clouds Mostly Cloudy 1800 ft
Dew Point 55 °F
Humidity 88%
Rainfall 0.00 in
Snow Depth Not available.
UV 0 out of 12
Pollen 9.90 out of 12
Air Quality Not available.
Flu Activity Local Activity
METAR KHFJ 251215Z AUTO 21016G20KT 10SM BKN018 15/13 A2953 RMK AO2

More Conditions Fewer Conditions

Pressure 29.53 in
Visibility 10.0 miles
Clouds Mostly Cloudy 1800 ft
Dew Point 55 °F
Humidity 88%
Rainfall 0.00 in
Snow Depth Not available.
UV 0 out of 12
Pollen 9.90 out of 12
Air Quality Not available.
Flu Activity Local Activity
METAR KHFJ 251215Z AUTO 21016G20KT 10SM BKN018 15/13 A2953 RMK AO2

More Conditions Fewer Conditions

10-Day Weather Forecast

Almanac

Astronomy

Apr. 25, 2015 Rise Set
Actual Time
Civil Twilight
Nautical Twilight
Astronomical Twilight
Moon
Length of Visible Light
Length of Day
Tomorrow will be .
, % of the Moon is Illuminated

Today's Extremes

State Highs State Lows

Community

WunderPhotos

Upload Photos

1,816,647 photos uploaded!

WunderBlogs® & News

Nearby

Air Quality

  Air Quality AQ Index Pollutant
Not available.

Snow Depth

Station Depth Elevation

Earthquake Activity

City Distance Mag. Time & Date
Minimum magnitude displayed is 2.5.

Coastal Water Temperatures

Place Temperature

Stations

Nearby Weather Stations

Station Location Temp. Windchill Dew Point Humidity Wind Precip. Elev Updated Type